sensor_id;sensor_type;location;lat;lon;timestamp;temperature;humidity
32502;DHT22;18952;52.516;13.460;2024-02-26T00:01:01;6.40;66.80
32502;DHT22;18952;52.516;13.460;2024-02-26T00:03:28;6.20;67.20
32502;DHT22;18952;52.516;13.460;2024-02-26T00:05:55;6.20;67.40
32502;DHT22;18952;52.516;13.460;2024-02-26T00:08:22;6.30;67.20
32502;DHT22;18952;52.516;13.460;2024-02-26T00:10:48;6.30;67.20
32502;DHT22;18952;52.516;13.460;2024-02-26T00:13:15;6.20;67.30
32502;DHT22;18952;52.516;13.460;2024-02-26T00:15:42;6.20;67.40
32502;DHT22;18952;52.516;13.460;2024-02-26T00:18:09;6.20;67.40
32502;DHT22;18952;52.516;13.460;2024-02-26T00:20:36;6.20;67.50
32502;DHT22;18952;52.516;13.460;2024-02-26T00:23:03;6.10;67.50
32502;DHT22;18952;52.516;13.460;2024-02-26T00:25:29;6.10;67.70
32502;DHT22;18952;52.516;13.460;2024-02-26T00:27:56;6.10;67.80
32502;DHT22;18952;52.516;13.460;2024-02-26T00:30:24;6.10;68.10
32502;DHT22;18952;52.516;13.460;2024-02-26T00:32:51;6.20;68.10
32502;DHT22;18952;52.516;13.460;2024-02-26T00:35:18;6.20;68.00
32502;DHT22;18952;52.516;13.460;2024-02-26T00:37:45;6.20;68.00
32502;DHT22;18952;52.516;13.460;2024-02-26T00:40:12;6.20;67.80
32502;DHT22;18952;52.516;13.460;2024-02-26T00:42:39;6.20;67.90
32502;DHT22;18952;52.516;13.460;2024-02-26T00:45:06;6.20;68.20
32502;DHT22;18952;52.516;13.460;2024-02-26T00:47:33;6.10;68.40
32502;DHT22;18952;52.516;13.460;2024-02-26T00:50:00;6.10;68.40
32502;DHT22;18952;52.516;13.460;2024-02-26T00:52:27;6.10;68.20
32502;DHT22;18952;52.516;13.460;2024-02-26T00:54:54;6.10;68.50
32502;DHT22;18952;52.516;13.460;2024-02-26T00:57:24;6.00;68.40
32502;DHT22;18952;52.516;13.460;2024-02-26T00:59:51;6.10;68.50
32502;DHT22;18952;52.516;13.460;2024-02-26T01:02:18;6.00;68.60
32502;DHT22;18952;52.516;13.460;2024-02-26T01:04:44;5.90;68.70
32502;DHT22;18952;52.516;13.460;2024-02-26T01:07:11;5.90;68.90
32502;DHT22;18952;52.516;13.460;2024-02-26T01:09:38;5.80;69.10
32502;DHT22;18952;52.516;13.460;2024-02-26T01:12:05;5.80;69.40
32502;DHT22;18952;52.516;13.460;2024-02-26T01:14:33;5.70;69.50
32502;DHT22;18952;52.516;13.460;2024-02-26T01:17:00;5.70;69.60
32502;DHT22;18952;52.516;13.460;2024-02-26T01:19:26;5.70;69.60
32502;DHT22;18952;52.516;13.460;2024-02-26T01:21:54;5.70;69.60
32502;DHT22;18952;52.516;13.460;2024-02-26T01:24:21;5.70;69.90
32502;DHT22;18952;52.516;13.460;2024-02-26T01:26:47;5.70;69.60
32502;DHT22;18952;52.516;13.460;2024-02-26T01:29:14;5.60;69.70
32502;DHT22;18952;52.516;13.460;2024-02-26T01:31:41;5.60;70.00
32502;DHT22;18952;52.516;13.460;2024-02-26T01:34:08;5.60;69.90
32502;DHT22;18952;52.516;13.460;2024-02-26T01:36:35;5.60;70.00
32502;DHT22;18952;52.516;13.460;2024-02-26T01:39:01;5.50;69.90
32502;DHT22;18952;52.516;13.460;2024-02-26T01:41:28;5.50;70.20
32502;DHT22;18952;52.516;13.460;2024-02-26T01:43:55;5.40;70.60
32502;DHT22;18952;52.516;13.460;2024-02-26T01:46:22;5.40;70.50
32502;DHT22;18952;52.516;13.460;2024-02-26T01:48:49;5.30;70.50
32502;DHT22;18952;52.516;13.460;2024-02-26T01:51:17;5.30;70.50
32502;DHT22;18952;52.516;13.460;2024-02-26T01:53:44;5.30;70.60
32502;DHT22;18952;52.516;13.460;2024-02-26T01:56:12;5.30;70.90
32502;DHT22;18952;52.516;13.460;2024-02-26T01:58:39;5.30;70.90
32502;DHT22;18952;52.516;13.460;2024-02-26T02:01:06;5.40;70.70
32502;DHT22;18952;52.516;13.460;2024-02-26T02:03:34;5.40;70.30
32502;DHT22;18952;52.516;13.460;2024-02-26T02:06:01;5.40;70.10
32502;DHT22;18952;52.516;13.460;2024-02-26T02:08:28;5.40;70.10
32502;DHT22;18952;52.516;13.460;2024-02-26T02:10:55;5.40;70.00
32502;DHT22;18952;52.516;13.460;2024-02-26T02:13:24;5.40;69.90
32502;DHT22;18952;52.516;13.460;2024-02-26T02:15:51;5.30;70.10
32502;DHT22;18952;52.516;13.460;2024-02-26T02:18:19;5.30;70.10
32502;DHT22;18952;52.516;13.460;2024-02-26T02:20:46;5.30;70.20
32502;DHT22;18952;52.516;13.460;2024-02-26T02:23:13;5.30;69.90
32502;DHT22;18952;52.516;13.460;2024-02-26T02:25:39;5.30;69.90
32502;DHT22;18952;52.516;13.460;2024-02-26T02:28:06;5.30;69.70
32502;DHT22;18952;52.516;13.460;2024-02-26T02:30:33;5.30;69.90
32502;DHT22;18952;52.516;13.460;2024-02-26T02:33:00;5.30;70.00
32502;DHT22;18952;52.516;13.460;2024-02-26T02:35:27;5.30;69.90
32502;DHT22;18952;52.516;13.460;2024-02-26T02:37:56;5.30;70.10
32502;DHT22;18952;52.516;13.460;2024-02-26T02:40:24;5.20;69.90
32502;DHT22;18952;52.516;13.460;2024-02-26T02:42:51;5.20;70.00
32502;DHT22;18952;52.516;13.460;2024-02-26T02:45:17;5.10;70.10
32502;DHT22;18952;52.516;13.460;2024-02-26T02:47:44;5.10;70.40
32502;DHT22;18952;52.516;13.460;2024-02-26T02:50:11;5.10;70.70
32502;DHT22;18952;52.516;13.460;2024-02-26T02:52:38;5.10;70.60
32502;DHT22;18952;52.516;13.460;2024-02-26T02:55:05;5.10;70.50
32502;DHT22;18952;52.516;13.460;2024-02-26T02:57:32;5.10;70.70
32502;DHT22;18952;52.516;13.460;2024-02-26T02:59:59;5.00;70.90
32502;DHT22;18952;52.516;13.460;2024-02-26T03:02:26;5.10;70.80
32502;DHT22;18952;52.516;13.460;2024-02-26T03:04:54;5.10;70.70
32502;DHT22;18952;52.516;13.460;2024-02-26T03:07:21;5.00;70.90
32502;DHT22;18952;52.516;13.460;2024-02-26T03:09:47;5.00;70.80
32502;DHT22;18952;52.516;13.460;2024-02-26T03:12:14;5.00;70.80
32502;DHT22;18952;52.516;13.460;2024-02-26T03:14:41;5.00;71.00
32502;DHT22;18952;52.516;13.460;2024-02-26T03:17:08;4.90;71.10
32502;DHT22;18952;52.516;13.460;2024-02-26T03:19:35;4.90;71.10
32502;DHT22;18952;52.516;13.460;2024-02-26T03:22:01;4.90;71.20
32502;DHT22;18952;52.516;13.460;2024-02-26T03:24:28;4.80;71.40
32502;DHT22;18952;52.516;13.460;2024-02-26T03:26:55;4.80;71.90
32502;DHT22;18952;52.516;13.460;2024-02-26T03:29:22;4.80;71.70
32502;DHT22;18952;52.516;13.460;2024-02-26T03:31:49;4.80;71.70
32502;DHT22;18952;52.516;13.460;2024-02-26T03:34:16;4.80;71.90
32502;DHT22;18952;52.516;13.460;2024-02-26T03:36:43;4.70;71.80
32502;DHT22;18952;52.516;13.460;2024-02-26T03:39:10;4.80;71.90
32502;DHT22;18952;52.516;13.460;2024-02-26T03:41:37;4.80;71.90
32502;DHT22;18952;52.516;13.460;2024-02-26T03:44:04;4.80;71.80
32502;DHT22;18952;52.516;13.460;2024-02-26T03:46:31;4.70;71.80
32502;DHT22;18952;52.516;13.460;2024-02-26T03:48:58;4.70;71.80
32502;DHT22;18952;52.516;13.460;2024-02-26T03:51:26;4.80;71.70
32502;DHT22;18952;52.516;13.460;2024-02-26T03:53:54;4.80;71.80
32502;DHT22;18952;52.516;13.460;2024-02-26T03:56:21;4.70;71.70
32502;DHT22;18952;52.516;13.460;2024-02-26T03:58:47;4.70;71.80
32502;DHT22;18952;52.516;13.460;2024-02-26T04:01:14;4.70;72.10
32502;DHT22;18952;52.516;13.460;2024-02-26T04:03:41;4.70;72.00
32502;DHT22;18952;52.516;13.460;2024-02-26T04:06:11;4.70;71.90
32502;DHT22;18952;52.516;13.460;2024-02-26T04:08:38;4.70;72.00
32502;DHT22;18952;52.516;13.460;2024-02-26T04:11:05;4.70;71.70
32502;DHT22;18952;52.516;13.460;2024-02-26T04:13:32;4.60;71.70
32502;DHT22;18952;52.516;13.460;2024-02-26T04:15:59;4.60;72.00
32502;DHT22;18952;52.516;13.460;2024-02-26T04:18:27;4.60;72.20
32502;DHT22;18952;52.516;13.460;2024-02-26T04:20:54;4.70;72.50
32502;DHT22;18952;52.516;13.460;2024-02-26T04:23:21;4.70;72.00
32502;DHT22;18952;52.516;13.460;2024-02-26T04:25:48;4.70;72.00
32502;DHT22;18952;52.516;13.460;2024-02-26T04:28:15;4.70;71.90
32502;DHT22;18952;52.516;13.460;2024-02-26T04:30:41;4.70;71.90
32502;DHT22;18952;52.516;13.460;2024-02-26T04:33:08;4.70;71.90
32502;DHT22;18952;52.516;13.460;2024-02-26T04:35:35;4.70;72.00
32502;DHT22;18952;52.516;13.460;2024-02-26T04:38:02;4.60;72.20
32502;DHT22;18952;52.516;13.460;2024-02-26T04:40:29;4.60;72.20
32502;DHT22;18952;52.516;13.460;2024-02-26T04:42:56;4.60;72.50
32502;DHT22;18952;52.516;13.460;2024-02-26T04:45:24;4.60;72.30
32502;DHT22;18952;52.516;13.460;2024-02-26T04:47:51;4.60;72.20
32502;DHT22;18952;52.516;13.460;2024-02-26T04:50:18;4.70;72.30
32502;DHT22;18952;52.516;13.460;2024-02-26T04:52:44;4.70;72.20
32502;DHT22;18952;52.516;13.460;2024-02-26T04:55:11;4.60;72.10
32502;DHT22;18952;52.516;13.460;2024-02-26T04:57:38;4.50;72.50
32502;DHT22;18952;52.516;13.460;2024-02-26T05:00:05;4.60;72.40
32502;DHT22;18952;52.516;13.460;2024-02-26T05:02:32;4.60;72.60
32502;DHT22;18952;52.516;13.460;2024-02-26T05:04:59;4.60;72.50
32502;DHT22;18952;52.516;13.460;2024-02-26T05:07:26;4.60;72.20
32502;DHT22;18952;52.516;13.460;2024-02-26T05:09:54;4.60;72.50
32502;DHT22;18952;52.516;13.460;2024-02-26T05:12:20;4.60;72.60
32502;DHT22;18952;52.516;13.460;2024-02-26T05:14:47;4.60;73.20
32502;DHT22;18952;52.516;13.460;2024-02-26T05:17:15;4.60;72.80
32502;DHT22;18952;52.516;13.460;2024-02-26T05:19:42;4.60;72.90
32502;DHT22;18952;52.516;13.460;2024-02-26T05:22:09;4.60;72.70
32502;DHT22;18952;52.516;13.460;2024-02-26T05:24:38;4.60;72.60
32502;DHT22;18952;52.516;13.460;2024-02-26T05:27:05;4.70;72.60
32502;DHT22;18952;52.516;13.460;2024-02-26T05:29:31;4.60;72.50
32502;DHT22;18952;52.516;13.460;2024-02-26T05:31:58;4.60;72.60
32502;DHT22;18952;52.516;13.460;2024-02-26T05:34:25;4.60;72.50
32502;DHT22;18952;52.516;13.460;2024-02-26T05:36:52;4.50;72.90
32502;DHT22;18952;52.516;13.460;2024-02-26T05:39:18;4.60;72.90
32502;DHT22;18952;52.516;13.460;2024-02-26T05:41:46;4.60;72.60
32502;DHT22;18952;52.516;13.460;2024-02-26T05:44:13;4.60;72.50
32502;DHT22;18952;52.516;13.460;2024-02-26T05:46:42;4.70;72.60
32502;DHT22;18952;52.516;13.460;2024-02-26T05:49:09;4.70;72.50
32502;DHT22;18952;52.516;13.460;2024-02-26T05:51:36;4.60;72.50
32502;DHT22;18952;52.516;13.460;2024-02-26T05:54:03;4.60;72.60
32502;DHT22;18952;52.516;13.460;2024-02-26T05:56:30;4.60;72.70
32502;DHT22;18952;52.516;13.460;2024-02-26T05:58:56;4.60;72.60
32502;DHT22;18952;52.516;13.460;2024-02-26T06:01:24;4.60;73.00
32502;DHT22;18952;52.516;13.460;2024-02-26T06:03:51;4.50;73.10
32502;DHT22;18952;52.516;13.460;2024-02-26T06:06:17;4.50;73.10
32502;DHT22;18952;52.516;13.460;2024-02-26T06:08:45;4.60;73.10
32502;DHT22;18952;52.516;13.460;2024-02-26T06:11:11;4.60;73.00
32502;DHT22;18952;52.516;13.460;2024-02-26T06:13:38;4.60;73.20
32502;DHT22;18952;52.516;13.460;2024-02-26T06:16:05;4.50;73.40
32502;DHT22;18952;52.516;13.460;2024-02-26T06:18:32;4.60;73.50
32502;DHT22;18952;52.516;13.460;2024-02-26T06:20:59;4.60;73.20
32502;DHT22;18952;52.516;13.460;2024-02-26T06:23:26;4.70;73.00
32502;DHT22;18952;52.516;13.460;2024-02-26T06:25:54;4.70;72.70
32502;DHT22;18952;52.516;13.460;2024-02-26T06:28:21;4.70;73.00
32502;DHT22;18952;52.516;13.460;2024-02-26T06:30:47;4.70;73.00
32502;DHT22;18952;52.516;13.460;2024-02-26T06:33:14;4.70;73.00
32502;DHT22;18952;52.516;13.460;2024-02-26T06:35:41;4.80;73.00
32502;DHT22;18952;52.516;13.460;2024-02-26T06:38:08;4.80;72.70
32502;DHT22;18952;52.516;13.460;2024-02-26T06:40:35;4.80;72.80
32502;DHT22;18952;52.516;13.460;2024-02-26T06:43:03;4.80;73.30
32502;DHT22;18952;52.516;13.460;2024-02-26T06:45:30;4.90;73.30
32502;DHT22;18952;52.516;13.460;2024-02-26T06:47:57;5.00;73.10
32502;DHT22;18952;52.516;13.460;2024-02-26T06:50:24;5.00;72.90
32502;DHT22;18952;52.516;13.460;2024-02-26T06:52:51;5.10;72.80
32502;DHT22;18952;52.516;13.460;2024-02-26T06:55:18;5.10;72.50
32502;DHT22;18952;52.516;13.460;2024-02-26T06:57:45;5.20;72.50
32502;DHT22;18952;52.516;13.460;2024-02-26T07:00:12;5.20;72.50
32502;DHT22;18952;52.516;13.460;2024-02-26T07:02:39;5.30;72.60
32502;DHT22;18952;52.516;13.460;2024-02-26T07:05:06;5.30;72.30
32502;DHT22;18952;52.516;13.460;2024-02-26T07:07:33;5.30;72.50
32502;DHT22;18952;52.516;13.460;2024-02-26T07:10:00;5.30;72.20
32502;DHT22;18952;52.516;13.460;2024-02-26T07:12:27;5.40;72.20
32502;DHT22;18952;52.516;13.460;2024-02-26T07:14:54;5.40;72.00
32502;DHT22;18952;52.516;13.460;2024-02-26T07:17:21;5.40;72.20
32502;DHT22;18952;52.516;13.460;2024-02-26T07:19:48;5.40;72.50
32502;DHT22;18952;52.516;13.460;2024-02-26T07:22:21;5.40;72.50
32502;DHT22;18952;52.516;13.460;2024-02-26T07:24:47;5.40;72.40
32502;DHT22;18952;52.516;13.460;2024-02-26T07:27:14;5.40;72.20
32502;DHT22;18952;52.516;13.460;2024-02-26T07:29:41;5.50;72.10
32502;DHT22;18952;52.516;13.460;2024-02-26T07:32:08;5.50;72.20
32502;DHT22;18952;52.516;13.460;2024-02-26T07:34:35;5.50;72.00
32502;DHT22;18952;52.516;13.460;2024-02-26T07:37:02;5.50;72.60
32502;DHT22;18952;52.516;13.460;2024-02-26T07:39:30;5.50;72.20
32502;DHT22;18952;52.516;13.460;2024-02-26T07:41:58;5.50;72.20
32502;DHT22;18952;52.516;13.460;2024-02-26T07:44:25;5.60;72.20
32502;DHT22;18952;52.516;13.460;2024-02-26T07:46:52;5.50;72.30
32502;DHT22;18952;52.516;13.460;2024-02-26T07:49:18;5.60;72.40
32502;DHT22;18952;52.516;13.460;2024-02-26T07:51:45;5.70;72.50
32502;DHT22;18952;52.516;13.460;2024-02-26T07:54:12;5.70;72.50
32502;DHT22;18952;52.516;13.460;2024-02-26T07:56:42;5.80;72.10
32502;DHT22;18952;52.516;13.460;2024-02-26T07:59:11;5.90;72.00
32502;DHT22;18952;52.516;13.460;2024-02-26T08:01:38;6.00;71.70
32502;DHT22;18952;52.516;13.460;2024-02-26T08:04:05;6.00;71.90
32502;DHT22;18952;52.516;13.460;2024-02-26T08:06:33;6.10;71.40
32502;DHT22;18952;52.516;13.460;2024-02-26T08:09:05;6.20;71.60
32502;DHT22;18952;52.516;13.460;2024-02-26T08:11:32;6.40;71.30
32502;DHT22;18952;52.516;13.460;2024-02-26T08:14:01;6.40;71.00
32502;DHT22;18952;52.516;13.460;2024-02-26T08:16:31;6.60;70.80
32502;DHT22;18952;52.516;13.460;2024-02-26T08:19:01;6.60;70.60
32502;DHT22;18952;52.516;13.460;2024-02-26T08:21:28;6.70;70.30
32502;DHT22;18952;52.516;13.460;2024-02-26T08:23:55;6.70;70.20
32502;DHT22;18952;52.516;13.460;2024-02-26T08:26:23;6.80;69.80
32502;DHT22;18952;52.516;13.460;2024-02-26T08:28:50;6.90;70.50
32502;DHT22;18952;52.516;13.460;2024-02-26T08:31:19;6.90;69.40
32502;DHT22;18952;52.516;13.460;2024-02-26T08:33:46;7.00;69.30
32502;DHT22;18952;52.516;13.460;2024-02-26T08:36:13;7.10;69.00
32502;DHT22;18952;52.516;13.460;2024-02-26T08:38:42;7.30;68.60
32502;DHT22;18952;52.516;13.460;2024-02-26T08:41:09;7.40;68.60
32502;DHT22;18952;52.516;13.460;2024-02-26T08:43:37;7.40;68.20
32502;DHT22;18952;52.516;13.460;2024-02-26T08:46:05;7.40;68.40
32502;DHT22;18952;52.516;13.460;2024-02-26T08:48:35;7.60;67.90
32502;DHT22;18952;52.516;13.460;2024-02-26T08:51:08;7.60;67.50
32502;DHT22;18952;52.516;13.460;2024-02-26T08:53:37;7.60;67.50
32502;DHT22;18952;52.516;13.460;2024-02-26T08:56:10;7.80;66.90
32502;DHT22;18952;52.516;13.460;2024-02-26T08:58:39;7.70;66.90
32502;DHT22;18952;52.516;13.460;2024-02-26T09:01:06;7.80;66.90
32502;DHT22;18952;52.516;13.460;2024-02-26T09:03:42;7.90;66.60
32502;DHT22;18952;52.516;13.460;2024-02-26T09:06:10;7.90;66.80
32502;DHT22;18952;52.516;13.460;2024-02-26T09:08:43;8.00;66.30
32502;DHT22;18952;52.516;13.460;2024-02-26T09:11:11;8.10;66.30
32502;DHT22;18952;52.516;13.460;2024-02-26T09:13:39;8.10;65.80
32502;DHT22;18952;52.516;13.460;2024-02-26T09:16:06;8.20;65.60
32502;DHT22;18952;52.516;13.460;2024-02-26T09:18:33;8.30;65.50
32502;DHT22;18952;52.516;13.460;2024-02-26T09:21:03;8.30;65.30
32502;DHT22;18952;52.516;13.460;2024-02-26T09:23:31;8.40;65.00
32502;DHT22;18952;52.516;13.460;2024-02-26T09:25:58;8.30;64.70
32502;DHT22;18952;52.516;13.460;2024-02-26T09:28:27;8.40;64.60
32502;DHT22;18952;52.516;13.460;2024-02-26T09:30:54;8.50;64.60
32502;DHT22;18952;52.516;13.460;2024-02-26T09:33:20;8.50;64.40
32502;DHT22;18952;52.516;13.460;2024-02-26T09:35:49;8.60;64.30
32502;DHT22;18952;52.516;13.460;2024-02-26T09:38:16;8.50;63.90
32502;DHT22;18952;52.516;13.460;2024-02-26T09:40:44;8.50;64.10
32502;DHT22;18952;52.516;13.460;2024-02-26T09:43:14;8.50;64.10
32502;DHT22;18952;52.516;13.460;2024-02-26T09:45:42;8.60;64.60
32502;DHT22;18952;52.516;13.460;2024-02-26T09:48:11;8.60;63.80
32502;DHT22;18952;52.516;13.460;2024-02-26T09:50:43;8.60;63.30
32502;DHT22;18952;52.516;13.460;2024-02-26T09:53:12;8.70;63.60
32502;DHT22;18952;52.516;13.460;2024-02-26T09:55:39;8.70;63.40
32502;DHT22;18952;52.516;13.460;2024-02-26T09:58:06;8.80;63.60
32502;DHT22;18952;52.516;13.460;2024-02-26T10:00:37;8.80;63.30
32502;DHT22;18952;52.516;13.460;2024-02-26T10:03:10;8.90;63.20
32502;DHT22;18952;52.516;13.460;2024-02-26T10:05:42;8.90;62.80
32502;DHT22;18952;52.516;13.460;2024-02-26T10:08:15;9.00;62.50
32502;DHT22;18952;52.516;13.460;2024-02-26T10:10:42;9.00;62.40
32502;DHT22;18952;52.516;13.460;2024-02-26T10:13:09;9.10;62.40
32502;DHT22;18952;52.516;13.460;2024-02-26T10:15:38;9.20;62.10
32502;DHT22;18952;52.516;13.460;2024-02-26T10:18:07;9.20;62.00
32502;DHT22;18952;52.516;13.460;2024-02-26T10:20:36;9.30;62.00
32502;DHT22;18952;52.516;13.460;2024-02-26T10:23:06;9.40;61.70
32502;DHT22;18952;52.516;13.460;2024-02-26T10:25:37;9.30;61.30
32502;DHT22;18952;52.516;13.460;2024-02-26T10:28:04;9.40;61.30
32502;DHT22;18952;52.516;13.460;2024-02-26T10:30:32;9.60;61.20
32502;DHT22;18952;52.516;13.460;2024-02-26T10:33:04;9.60;60.80
32502;DHT22;18952;52.516;13.460;2024-02-26T10:35:31;9.60;61.20
32502;DHT22;18952;52.516;13.460;2024-02-26T10:38:00;9.70;60.70
32502;DHT22;18952;52.516;13.460;2024-02-26T10:40:27;9.80;60.70
32502;DHT22;18952;52.516;13.460;2024-02-26T10:42:55;9.90;60.50
32502;DHT22;18952;52.516;13.460;2024-02-26T10:45:25;10.00;60.20
32502;DHT22;18952;52.516;13.460;2024-02-26T10:47:55;10.00;59.90
32502;DHT22;18952;52.516;13.460;2024-02-26T10:50:25;10.00;59.50
32502;DHT22;18952;52.516;13.460;2024-02-26T10:52:55;10.00;59.90
32502;DHT22;18952;52.516;13.460;2024-02-26T10:55:26;10.00;59.30
32502;DHT22;18952;52.516;13.460;2024-02-26T10:57:55;10.10;59.00
32502;DHT22;18952;52.516;13.460;2024-02-26T11:00:24;10.10;58.60
32502;DHT22;18952;52.516;13.460;2024-02-26T11:02:52;10.20;58.50
32502;DHT22;18952;52.516;13.460;2024-02-26T11:05:22;10.10;58.50
32502;DHT22;18952;52.516;13.460;2024-02-26T11:07:52;10.20;58.30
32502;DHT22;18952;52.516;13.460;2024-02-26T11:10:21;10.20;58.70
32502;DHT22;18952;52.516;13.460;2024-02-26T11:12:54;10.30;58.20
32502;DHT22;18952;52.516;13.460;2024-02-26T11:15:22;10.40;58.00
32502;DHT22;18952;52.516;13.460;2024-02-26T11:17:52;10.50;57.90
32502;DHT22;18952;52.516;13.460;2024-02-26T11:20:20;10.50;57.70
32502;DHT22;18952;52.516;13.460;2024-02-26T11:22:47;10.60;56.90
32502;DHT22;18952;52.516;13.460;2024-02-26T11:25:14;10.60;56.20
32502;DHT22;18952;52.516;13.460;2024-02-26T11:27:52;10.60;56.40
32502;DHT22;18952;52.516;13.460;2024-02-26T11:30:21;10.60;56.50
32502;DHT22;18952;52.516;13.460;2024-02-26T11:32:50;10.80;56.40
32502;DHT22;18952;52.516;13.460;2024-02-26T11:35:19;10.90;56.00
32502;DHT22;18952;52.516;13.460;2024-02-26T11:37:57;11.00;55.00
32502;DHT22;18952;52.516;13.460;2024-02-26T11:40:24;11.00;54.50
32502;DHT22;18952;52.516;13.460;2024-02-26T11:42:53;11.10;54.50
32502;DHT22;18952;52.516;13.460;2024-02-26T11:48:24;11.20;54.20
32502;DHT22;18952;52.516;13.460;2024-02-26T11:50:53;11.30;54.00
32502;DHT22;18952;52.516;13.460;2024-02-26T11:53:34;11.40;54.40
32502;DHT22;18952;52.516;13.460;2024-02-26T11:58:47;11.60;54.50
32502;DHT22;18952;52.516;13.460;2024-02-26T12:01:45;11.60;54.00
32502;DHT22;18952;52.516;13.460;2024-02-26T12:04:24;11.60;53.90
32502;DHT22;18952;52.516;13.460;2024-02-26T12:06:58;11.70;53.90
32502;DHT22;18952;52.516;13.460;2024-02-26T12:09:38;11.80;54.10
32502;DHT22;18952;52.516;13.460;2024-02-26T12:12:10;11.90;54.00
32502;DHT22;18952;52.516;13.460;2024-02-26T12:14:56;11.90;53.60
32502;DHT22;18952;52.516;13.460;2024-02-26T12:17:25;11.90;53.30
32502;DHT22;18952;52.516;13.460;2024-02-26T12:20:11;11.80;52.80
32502;DHT22;18952;52.516;13.460;2024-02-26T12:22:40;11.80;53.30
32502;DHT22;18952;52.516;13.460;2024-02-26T12:25:13;12.00;53.30
32502;DHT22;18952;52.516;13.460;2024-02-26T12:27:41;12.10;52.90
32502;DHT22;18952;52.516;13.460;2024-02-26T12:30:09;12.20;52.40
32502;DHT22;18952;52.516;13.460;2024-02-26T12:32:38;12.30;52.20
32502;DHT22;18952;52.516;13.460;2024-02-26T12:35:06;12.40;51.20
32502;DHT22;18952;52.516;13.460;2024-02-26T12:37:34;12.40;52.10
32502;DHT22;18952;52.516;13.460;2024-02-26T12:40:01;12.40;52.10
32502;DHT22;18952;52.516;13.460;2024-02-26T12:42:29;12.40;50.90
32502;DHT22;18952;52.516;13.460;2024-02-26T12:44:56;12.50;51.50
32502;DHT22;18952;52.516;13.460;2024-02-26T12:47:25;12.60;51.60
32502;DHT22;18952;52.516;13.460;2024-02-26T12:49:52;12.70;51.30
32502;DHT22;18952;52.516;13.460;2024-02-26T12:52:19;12.90;49.90
32502;DHT22;18952;52.516;13.460;2024-02-26T12:54:47;12.70;49.60
32502;DHT22;18952;52.516;13.460;2024-02-26T12:57:17;12.70;50.30
32502;DHT22;18952;52.516;13.460;2024-02-26T12:59:45;12.80;50.10
32502;DHT22;18952;52.516;13.460;2024-02-26T13:02:13;12.90;49.20
32502;DHT22;18952;52.516;13.460;2024-02-26T13:04:42;12.80;48.20
32502;DHT22;18952;52.516;13.460;2024-02-26T13:07:10;12.90;48.70
32502;DHT22;18952;52.516;13.460;2024-02-26T13:09:38;13.00;48.40
32502;DHT22;18952;52.516;13.460;2024-02-26T13:12:08;13.10;48.20
32502;DHT22;18952;52.516;13.460;2024-02-26T13:14:36;13.20;48.00
32502;DHT22;18952;52.516;13.460;2024-02-26T13:17:04;13.20;47.30
32502;DHT22;18952;52.516;13.460;2024-02-26T13:19:32;13.20;46.70
32502;DHT22;18952;52.516;13.460;2024-02-26T13:22:06;13.10;46.70
32502;DHT22;18952;52.516;13.460;2024-02-26T13:24:37;13.20;46.80
32502;DHT22;18952;52.516;13.460;2024-02-26T13:27:05;13.20;46.30
32502;DHT22;18952;52.516;13.460;2024-02-26T13:29:32;13.10;46.70
32502;DHT22;18952;52.516;13.460;2024-02-26T13:32:03;13.10;46.90
32502;DHT22;18952;52.516;13.460;2024-02-26T13:34:31;13.10;46.20
32502;DHT22;18952;52.516;13.460;2024-02-26T13:36:58;13.10;46.10
32502;DHT22;18952;52.516;13.460;2024-02-26T13:39:26;13.20;46.40
32502;DHT22;18952;52.516;13.460;2024-02-26T13:41:54;13.20;46.10
32502;DHT22;18952;52.516;13.460;2024-02-26T13:44:22;13.10;46.20
32502;DHT22;18952;52.516;13.460;2024-02-26T13:46:49;13.20;46.30
32502;DHT22;18952;52.516;13.460;2024-02-26T13:49:19;13.00;46.10
32502;DHT22;18952;52.516;13.460;2024-02-26T13:51:52;13.00;46.70
32502;DHT22;18952;52.516;13.460;2024-02-26T13:54:20;12.90;46.80
32502;DHT22;18952;52.516;13.460;2024-02-26T13:56:46;12.90;46.70
32502;DHT22;18952;52.516;13.460;2024-02-26T13:59:15;12.90;46.40
32502;DHT22;18952;52.516;13.460;2024-02-26T14:01:44;12.90;46.60
32502;DHT22;18952;52.516;13.460;2024-02-26T14:04:11;12.90;46.40
32502;DHT22;18952;52.516;13.460;2024-02-26T14:06:41;12.90;46.50
32502;DHT22;18952;52.516;13.460;2024-02-26T14:09:09;12.80;46.60
32502;DHT22;18952;52.516;13.460;2024-02-26T14:11:36;12.70;46.60
32502;DHT22;18952;52.516;13.460;2024-02-26T14:14:05;12.80;46.90
32502;DHT22;18952;52.516;13.460;2024-02-26T14:16:32;12.70;47.00
32502;DHT22;18952;52.516;13.460;2024-02-26T14:19:00;12.70;46.90
32502;DHT22;18952;52.516;13.460;2024-02-26T14:21:27;12.70;47.20
32502;DHT22;18952;52.516;13.460;2024-02-26T14:23:56;12.70;48.10
32502;DHT22;18952;52.516;13.460;2024-02-26T14:26:24;12.70;47.40
32502;DHT22;18952;52.516;13.460;2024-02-26T14:28:51;12.60;47.40
32502;DHT22;18952;52.516;13.460;2024-02-26T14:31:18;12.60;47.60
32502;DHT22;18952;52.516;13.460;2024-02-26T14:33:46;12.60;47.50
32502;DHT22;18952;52.516;13.460;2024-02-26T14:36:21;12.50;47.40
32502;DHT22;18952;52.516;13.460;2024-02-26T14:38:50;12.50;47.50
32502;DHT22;18952;52.516;13.460;2024-02-26T14:41:18;12.30;47.60
32502;DHT22;18952;52.516;13.460;2024-02-26T14:43:46;12.30;48.10
32502;DHT22;18952;52.516;13.460;2024-02-26T14:46:14;12.30;48.10
32502;DHT22;18952;52.516;13.460;2024-02-26T14:48:43;12.30;48.30
32502;DHT22;18952;52.516;13.460;2024-02-26T14:51:11;12.20;48.60
32502;DHT22;18952;52.516;13.460;2024-02-26T14:53:39;12.20;48.90
32502;DHT22;18952;52.516;13.460;2024-02-26T14:56:07;12.10;48.60
32502;DHT22;18952;52.516;13.460;2024-02-26T14:58:35;12.20;48.80
32502;DHT22;18952;52.516;13.460;2024-02-26T15:01:03;12.10;48.60
32502;DHT22;18952;52.516;13.460;2024-02-26T15:03:30;12.10;48.80
32502;DHT22;18952;52.516;13.460;2024-02-26T15:05:58;12.00;48.80
32502;DHT22;18952;52.516;13.460;2024-02-26T15:08:25;12.00;49.10
32502;DHT22;18952;52.516;13.460;2024-02-26T15:10:52;11.90;49.20
32502;DHT22;18952;52.516;13.460;2024-02-26T15:13:19;12.00;49.50
32502;DHT22;18952;52.516;13.460;2024-02-26T15:15:49;11.90;49.60
32502;DHT22;18952;52.516;13.460;2024-02-26T15:18:16;11.70;49.70
32502;DHT22;18952;52.516;13.460;2024-02-26T15:20:45;11.60;50.20
32502;DHT22;18952;52.516;13.460;2024-02-26T15:23:12;11.60;50.50
32502;DHT22;18952;52.516;13.460;2024-02-26T15:25:45;11.70;50.50
32502;DHT22;18952;52.516;13.460;2024-02-26T15:28:12;11.70;50.60
32502;DHT22;18952;52.516;13.460;2024-02-26T15:30:40;11.60;50.60
32502;DHT22;18952;52.516;13.460;2024-02-26T15:33:09;11.50;50.90
32502;DHT22;18952;52.516;13.460;2024-02-26T15:36:24;11.40;51.20
32502;DHT22;18952;52.516;13.460;2024-02-26T15:38:54;11.40;51.30